createdAt,value
2018-03-04T00:02:22.467Z,0.60
2018-03-04T00:04:50.845Z,0.50
2018-03-04T00:07:19.206Z,0.60
2018-03-04T00:09:47.995Z,0.60
2018-03-04T00:12:16.361Z,0.60
2018-03-04T00:14:44.763Z,0.50
2018-03-04T00:17:13.498Z,0.50
2018-03-04T00:19:42.640Z,0.40
2018-03-04T00:22:11.917Z,0.40
2018-03-04T00:24:40.956Z,0.50
2018-03-04T00:27:09.336Z,0.50
2018-03-04T00:29:37.715Z,0.50
2018-03-04T00:32:06.909Z,0.50
2018-03-04T00:34:35.292Z,0.50
2018-03-04T00:37:03.662Z,0.60
2018-03-04T00:39:32.884Z,0.70
2018-03-04T00:42:01.250Z,0.80
2018-03-04T00:44:29.603Z,0.80
2018-03-04T00:46:59.122Z,0.80
2018-03-04T00:49:27.484Z,0.80
2018-03-04T00:51:55.845Z,0.80
2018-03-04T00:54:24.905Z,0.80
2018-03-04T00:56:53.288Z,0.80
2018-03-04T00:59:21.655Z,0.80
2018-03-04T01:01:50.791Z,0.80
2018-03-04T01:04:19.155Z,0.90
2018-03-04T01:06:47.519Z,0.80
2018-03-04T01:09:16.244Z,0.80
2018-03-04T01:11:44.625Z,0.80
2018-03-04T01:14:12.991Z,0.80
2018-03-04T01:16:41.800Z,0.80
2018-03-04T01:19:10.442Z,0.80
2018-03-04T01:21:38.899Z,0.70
2018-03-04T01:24:09.000Z,0.70
2018-03-04T01:26:37.372Z,0.80
2018-03-04T01:29:06.015Z,0.90
2018-03-04T01:31:36.091Z,1.30
2018-03-04T01:34:04.444Z,1.20
2018-03-04T01:36:33.561Z,1.50
2018-03-04T01:39:02.380Z,1.50
2018-03-04T01:41:30.752Z,1.60
2018-03-04T01:43:59.125Z,1.90
2018-03-04T01:46:27.949Z,2.10
2018-03-04T01:48:56.320Z,2.20
2018-03-04T01:54:26.100Z,2.40
2018-03-04T01:56:55.238Z,2.40
2018-03-04T01:59:23.614Z,2.40
2018-03-04T02:01:51.995Z,2.40
2018-03-04T02:04:20.967Z,2.40
2018-03-04T02:06:49.344Z,2.50
2018-03-04T02:09:17.703Z,2.60
2018-03-04T02:11:46.547Z,2.60
2018-03-04T02:14:14.923Z,2.60
2018-03-04T02:16:43.288Z,2.60
2018-03-04T02:19:12.413Z,2.50
2018-03-04T02:21:40.817Z,2.50
2018-03-04T02:24:10.351Z,2.50
2018-03-04T02:26:39.354Z,2.50
2018-03-04T02:29:07.734Z,2.50
2018-03-04T02:31:36.890Z,2.50
2018-03-04T02:34:05.691Z,2.50
2018-03-04T02:36:34.878Z,2.50
2018-03-04T02:39:04.047Z,2.40
2018-03-04T02:41:36.624Z,2.40
2018-03-04T02:44:06.152Z,2.40
2018-03-04T02:46:34.585Z,2.40
2018-03-04T02:49:03.828Z,2.40
2018-03-04T02:51:32.975Z,2.50
2018-03-04T02:54:01.345Z,2.50
2018-03-04T02:56:30.776Z,2.60
2018-03-04T02:58:59.139Z,2.60
2018-03-04T03:01:28.281Z,2.70
2018-03-04T03:03:57.437Z,2.60
2018-03-04T03:06:26.557Z,2.60
2018-03-04T03:08:54.908Z,2.60
2018-03-04T03:11:23.276Z,2.70
2018-03-04T03:13:52.232Z,2.60
2018-03-04T03:16:20.583Z,2.60
2018-03-04T03:18:48.977Z,2.60
2018-03-04T03:21:18.675Z,2.70
2018-03-04T03:23:47.874Z,2.60
2018-03-04T03:26:17.018Z,2.60
2018-03-04T03:28:45.895Z,2.50
2018-03-04T03:31:14.251Z,2.40
2018-03-04T03:33:42.609Z,2.30
2018-03-04T03:36:11.851Z,2.20
2018-03-04T03:38:40.189Z,2.00
2018-03-04T03:41:09.304Z,1.70
2018-03-04T03:43:38.268Z,1.70
2018-03-04T03:46:06.609Z,1.50
2018-03-04T03:48:34.970Z,1.50
2018-03-04T03:51:03.880Z,1.40
2018-03-04T03:53:32.244Z,1.40
2018-03-04T03:56:00.598Z,1.30
2018-03-04T03:58:30.099Z,1.10
2018-03-04T04:00:59.221Z,1.00
2018-03-04T04:03:28.367Z,0.90
2018-03-04T04:05:57.135Z,0.90
2018-03-04T04:08:25.496Z,0.80
2018-03-04T04:10:54.603Z,0.60
2018-03-04T04:13:24.360Z,0.60
2018-03-04T04:15:52.732Z,0.50
2018-03-04T04:18:21.138Z,0.50
2018-03-04T04:20:50.845Z,0.30
2018-03-04T04:23:19.203Z,0.30
2018-03-04T04:25:47.557Z,0.30
2018-03-04T04:28:18.023Z,0.40
2018-03-04T04:30:46.388Z,0.40
2018-03-04T04:33:14.780Z,0.50
2018-03-04T04:35:43.535Z,0.50
2018-03-04T04:38:12.669Z,0.40
2018-03-04T04:40:41.014Z,0.40
2018-03-04T04:43:09.918Z,0.30
2018-03-04T04:45:39.047Z,0.10
2018-03-04T04:48:07.411Z,0.10
2018-03-04T04:50:37.273Z,-0.20
2018-03-04T04:53:05.663Z,-0.20
2018-03-04T04:55:34.040Z,-0.30
2018-03-04T04:58:02.819Z,-0.40
2018-03-04T05:00:31.191Z,-0.40
2018-03-04T05:02:59.547Z,-0.40
2018-03-04T05:05:28.396Z,-0.20
2018-03-04T05:07:56.734Z,-0.10
2018-03-04T05:10:25.090Z,0.00
2018-03-04T05:12:54.766Z,0.20
2018-03-04T05:15:23.144Z,0.20
2018-03-04T05:17:51.497Z,0.30
2018-03-04T05:20:20.849Z,0.40
2018-03-04T05:22:49.208Z,0.30
2018-03-04T05:25:17.581Z,0.20
2018-03-04T05:27:46.423Z,0.00
2018-03-04T05:30:16.077Z,-0.20
2018-03-04T05:32:44.451Z,-0.40
2018-03-04T05:35:13.291Z,-0.60
2018-03-04T05:37:41.654Z,-0.70
2018-03-04T05:40:10.016Z,-0.80
2018-03-04T05:42:39.156Z,-0.90
2018-03-04T05:45:07.499Z,-1.00
2018-03-04T05:47:35.870Z,-1.00
2018-03-04T05:50:05.917Z,-1.10
2018-03-04T05:52:34.275Z,-1.20
2018-03-04T05:55:03.405Z,-1.00
2018-03-04T05:57:32.432Z,-1.10
2018-03-04T06:00:00.791Z,-1.00
2018-03-04T06:02:29.174Z,-0.90
2018-03-04T06:04:58.093Z,-0.90
2018-03-04T06:07:26.474Z,-0.80
2018-03-04T06:09:54.862Z,-0.80
2018-03-04T06:12:24.357Z,-0.80
2018-03-04T06:14:52.738Z,-0.70
2018-03-04T06:17:21.088Z,-0.60
2018-03-04T06:19:50.404Z,-0.50
2018-03-04T06:22:18.792Z,-0.50
2018-03-04T06:24:47.227Z,-0.50
2018-03-04T06:27:16.183Z,-0.50
2018-03-04T06:29:44.568Z,-0.20
2018-03-04T06:32:15.927Z,0.00
2018-03-04T06:34:44.271Z,0.00
2018-03-04T06:37:13.374Z,-0.10
2018-03-04T06:39:42.732Z,-0.10
2018-03-04T06:42:11.127Z,-0.10
2018-03-04T06:44:40.275Z,-0.20
2018-03-04T06:47:09.094Z,-0.20
2018-03-04T06:49:37.505Z,-0.10
2018-03-04T06:52:05.862Z,-0.10
2018-03-04T06:54:35.475Z,0.00
2018-03-04T06:57:04.765Z,0.00
2018-03-04T06:59:33.144Z,0.20
2018-03-04T07:02:02.593Z,0.30
2018-03-04T07:04:30.962Z,0.40
2018-03-04T07:06:59.570Z,0.50
2018-03-04T07:09:29.373Z,0.70
2018-03-04T07:11:57.750Z,0.60
2018-03-04T07:14:26.099Z,0.70
2018-03-04T07:16:54.836Z,0.80
2018-03-04T07:19:23.981Z,1.00
2018-03-04T07:21:52.334Z,1.00
2018-03-04T07:24:21.203Z,1.00
2018-03-04T07:26:49.571Z,1.10
2018-03-04T07:29:17.929Z,1.20
2018-03-04T07:31:46.856Z,1.20
2018-03-04T07:34:16.603Z,1.30
2018-03-04T07:36:45.732Z,1.50
2018-03-04T07:39:15.151Z,1.40
2018-03-04T07:41:43.508Z,1.60
2018-03-04T07:44:12.625Z,1.90
2018-03-04T07:46:41.404Z,1.90
2018-03-04T07:49:10.516Z,2.10
2018-03-04T07:51:38.899Z,2.10
2018-03-04T07:54:07.719Z,2.30
2018-03-04T07:56:36.833Z,2.50
2018-03-04T07:59:05.950Z,2.70
2018-03-04T08:01:34.984Z,2.70
2018-03-04T08:04:04.106Z,3.00
2018-03-04T08:06:32.471Z,3.00
2018-03-04T08:09:01.365Z,3.20
2018-03-04T08:11:29.790Z,3.50
2018-03-04T08:13:58.126Z,3.80
2018-03-04T08:16:26.950Z,4.20
2018-03-04T08:18:55.306Z,5.00
2018-03-04T08:21:24.399Z,6.20
2018-03-04T08:23:53.123Z,6.20
2018-03-04T08:26:34.126Z,7.60
2018-03-04T08:29:03.080Z,7.60
2018-03-04T08:31:31.489Z,8.00
2018-03-04T08:33:59.828Z,8.60
2018-03-04T08:36:30.843Z,9.40
2018-03-04T08:39:00.027Z,10.20
2018-03-04T08:41:28.396Z,10.10
2018-03-04T08:43:57.600Z,10.10
2018-03-04T08:46:25.942Z,10.20
2018-03-04T08:48:54.328Z,10.40
2018-03-04T08:51:23.109Z,10.70
2018-03-04T08:53:52.257Z,11.50
2018-03-04T08:56:20.974Z,11.50
2018-03-04T08:58:50.478Z,11.60
2018-03-04T09:01:19.597Z,11.60
2018-03-04T09:03:48.337Z,11.90
2018-03-04T09:06:18.146Z,12.10
2018-03-04T09:08:47.814Z,12.30
2018-03-04T09:11:16.188Z,12.20
2018-03-04T09:13:44.940Z,13.10
2018-03-04T09:16:13.284Z,12.70
2018-03-04T09:18:42.424Z,12.10
2018-03-04T09:21:11.215Z,12.10
2018-03-04T09:23:39.584Z,12.30
2018-03-04T09:26:07.957Z,13.40
2018-03-04T09:28:36.992Z,14.30
2018-03-04T09:31:05.353Z,14.40
2018-03-04T09:33:33.716Z,13.80
2018-03-04T09:36:03.073Z,13.00
2018-03-04T09:38:32.826Z,11.90
2018-03-04T09:41:01.940Z,11.80
2018-03-04T09:43:30.799Z,11.80
2018-03-04T09:45:59.162Z,11.90
2018-03-04T09:48:27.547Z,12.40
2018-03-04T09:50:56.101Z,13.10
2018-03-04T09:53:26.011Z,13.80
2018-03-04T09:55:54.567Z,13.80
2018-03-04T09:58:24.224Z,14.10
2018-03-04T10:00:54.276Z,13.70
2018-03-04T10:03:22.896Z,13.70
2018-03-04T10:05:51.290Z,13.40
2018-03-04T10:08:20.836Z,13.40
2018-03-04T10:10:49.472Z,13.40
2018-03-04T10:13:18.617Z,13.20
2018-03-04T10:15:49.210Z,12.50
2018-03-04T10:18:18.750Z,12.30
2018-03-04T10:20:47.382Z,12.40
2018-03-04T10:23:16.940Z,12.50
2018-03-04T10:25:45.467Z,12.50
2018-03-04T10:28:14.785Z,12.90
2018-03-04T10:30:43.627Z,12.90
2018-03-04T10:33:12.260Z,12.50
2018-03-04T10:35:41.924Z,12.00
2018-03-04T10:38:11.874Z,11.50
2018-03-04T10:40:41.831Z,10.80
2018-03-04T10:43:10.387Z,10.50
2018-03-04T10:45:39.499Z,10.40
2018-03-04T10:48:08.060Z,10.00
2018-03-04T10:50:36.730Z,9.80
2018-03-04T10:53:05.563Z,9.80
2018-03-04T10:55:34.895Z,9.90
2018-03-04T10:58:05.035Z,10.00
2018-03-04T11:00:39.824Z,10.00
2018-03-04T11:03:09.151Z,10.00
2018-03-04T11:05:37.787Z,10.00
2018-03-04T11:08:07.930Z,11.00
2018-03-04T11:10:36.326Z,11.00
2018-03-04T11:13:05.636Z,11.20
2018-03-04T11:15:34.805Z,11.60
2018-03-04T11:18:05.096Z,11.60
2018-03-04T11:20:33.689Z,11.50
2018-03-04T11:23:03.540Z,11.20
2018-03-04T11:25:33.799Z,10.70
2018-03-04T11:28:04.736Z,10.40
2018-03-04T11:30:33.986Z,10.10
2018-03-04T11:33:03.680Z,9.80
2018-03-04T11:35:32.087Z,9.80
2018-03-04T11:38:01.472Z,9.80
2018-03-04T11:40:30.330Z,10.00
2018-03-04T11:42:59.800Z,10.40
2018-03-04T11:45:28.197Z,11.20
2018-03-04T11:47:56.961Z,12.40
2018-03-04T11:50:26.077Z,13.00
2018-03-04T11:52:54.455Z,13.00
2018-03-04T11:55:24.214Z,13.30
2018-03-04T11:57:52.572Z,13.30
2018-03-04T12:00:20.976Z,14.00
2018-03-04T12:02:49.769Z,14.70
2018-03-04T12:05:18.134Z,14.30
2018-03-04T12:07:47.647Z,13.70
2018-03-04T12:10:17.689Z,13.90
2018-03-04T12:12:46.399Z,14.70
2018-03-04T12:15:14.857Z,15.30
2018-03-04T12:17:44.376Z,15.10
2018-03-04T12:20:12.785Z,14.30
2018-03-04T12:22:41.221Z,14.20
2018-03-04T12:25:10.446Z,14.90
2018-03-04T12:27:38.830Z,14.60
2018-03-04T12:30:07.194Z,14.90
2018-03-04T12:32:35.985Z,15.30
2018-03-04T12:35:04.363Z,15.70
2018-03-04T12:37:32.728Z,15.80
2018-03-04T12:40:01.900Z,16.30
2018-03-04T12:42:31.069Z,15.60
2018-03-04T12:45:00.400Z,15.60
2018-03-04T12:47:29.778Z,15.30
2018-03-04T12:49:58.179Z,15.60
2018-03-04T12:52:26.549Z,15.80
2018-03-04T12:54:55.682Z,15.00
2018-03-04T12:57:24.619Z,14.70
2018-03-04T12:59:52.971Z,14.50
2018-03-04T13:02:21.778Z,14.70
2018-03-04T13:04:50.153Z,15.20
2018-03-04T13:07:18.562Z,14.60
2018-03-04T13:09:48.538Z,14.40
2018-03-04T13:12:17.687Z,14.70
2018-03-04T13:14:46.858Z,14.00
2018-03-04T13:17:16.536Z,14.00
2018-03-04T13:19:45.714Z,14.10
2018-03-04T13:22:14.129Z,14.10
2018-03-04T13:24:44.016Z,14.30
2018-03-04T13:27:12.412Z,14.30
2018-03-04T13:29:41.508Z,14.20
2018-03-04T13:32:10.536Z,14.30
2018-03-04T13:34:38.887Z,14.90
2018-03-04T13:37:07.268Z,14.40
2018-03-04T13:39:37.265Z,12.40
2018-03-04T13:42:05.661Z,12.40
2018-03-04T13:44:34.114Z,11.90
2018-03-04T13:47:04.701Z,12.00
2018-03-04T13:49:33.090Z,12.90
2018-03-04T13:52:01.470Z,14.30
2018-03-04T13:54:30.213Z,14.80
2018-03-04T13:56:58.584Z,14.90
2018-03-04T13:59:27.030Z,15.30
2018-03-04T14:01:56.759Z,14.80
2018-03-04T14:04:25.139Z,14.50
2018-03-04T14:06:53.522Z,14.60
2018-03-04T14:09:22.807Z,14.30
2018-03-04T14:11:51.192Z,14.00
2018-03-04T14:14:19.567Z,14.30
2018-03-04T14:16:48.373Z,15.00
2018-03-04T14:19:16.732Z,14.70
2018-03-04T14:21:47.677Z,14.60
2018-03-04T14:24:16.592Z,14.80
2018-03-04T14:26:44.993Z,14.70
2018-03-04T14:29:14.152Z,15.20
2018-03-04T14:31:43.477Z,15.20
2018-03-04T14:34:11.853Z,14.80
2018-03-04T14:36:40.219Z,14.00
2018-03-04T14:39:09.333Z,14.40
2018-03-04T14:41:37.756Z,14.50
2018-03-04T14:44:06.211Z,14.50
2018-03-04T14:46:35.910Z,12.90
2018-03-04T14:49:05.441Z,12.90
2018-03-04T14:51:35.580Z,11.50
2018-03-04T14:54:04.738Z,10.50
2018-03-04T14:56:33.132Z,10.50
2018-03-04T14:59:02.129Z,9.90
2018-03-04T15:01:30.514Z,9.80
2018-03-04T15:03:58.876Z,9.60
2018-03-04T15:06:27.697Z,9.50
2018-03-04T15:08:56.864Z,9.30
2018-03-04T15:11:25.220Z,9.30
2018-03-04T15:13:55.227Z,9.10
2018-03-04T15:16:23.604Z,9.10
2018-03-04T15:18:52.055Z,9.00
2018-03-04T15:21:21.374Z,9.00
2018-03-04T15:23:49.765Z,8.90
2018-03-04T15:26:18.213Z,9.10
2018-03-04T15:28:49.725Z,8.80
2018-03-04T15:31:19.183Z,8.90
2018-03-04T15:33:47.638Z,8.80
2018-03-04T15:36:17.410Z,8.70
2018-03-04T15:38:45.826Z,8.70
2018-03-04T15:41:14.962Z,8.70
2018-03-04T15:43:44.063Z,8.60
2018-03-04T15:46:12.465Z,8.40
2018-03-04T15:48:40.831Z,8.00
2018-03-04T15:51:11.038Z,7.50
2018-03-04T15:53:39.464Z,7.20
2018-03-04T15:56:07.884Z,6.90
2018-03-04T15:58:36.770Z,6.80
2018-03-04T16:01:05.144Z,6.60
2018-03-04T16:03:34.311Z,6.40
2018-03-04T16:06:03.343Z,6.30
2018-03-04T16:08:31.786Z,6.20
2018-03-04T16:11:00.193Z,6.10
2018-03-04T16:13:29.808Z,6.00
2018-03-04T16:15:58.167Z,5.90
2018-03-04T16:18:26.561Z,5.90
2018-03-04T16:20:56.287Z,5.70
2018-03-04T16:23:24.688Z,5.70
2018-03-04T16:25:53.852Z,5.50
2018-03-04T16:28:23.417Z,5.50
2018-03-04T16:30:52.577Z,5.40
2018-03-04T16:33:20.964Z,5.40
2018-03-04T16:35:49.933Z,5.40
2018-03-04T16:38:18.323Z,5.50
2018-03-04T16:40:46.716Z,5.40
2018-03-04T16:43:16.084Z,5.40
2018-03-04T16:45:46.445Z,5.20
2018-03-04T16:48:14.966Z,5.20
2018-03-04T16:50:43.939Z,5.10
2018-03-04T16:53:13.585Z,5.00
2018-03-04T16:55:44.089Z,4.70
2018-03-04T16:58:13.132Z,4.70
2018-03-04T17:00:41.605Z,4.70
2018-03-04T17:03:10.989Z,4.60
2018-03-04T17:05:39.477Z,4.50
2018-03-04T17:08:08.146Z,4.40
2018-03-04T17:10:37.264Z,4.20
2018-03-04T17:13:05.757Z,4.10
2018-03-04T17:15:34.139Z,4.00
2018-03-04T17:18:02.893Z,3.90
2018-03-04T17:20:32.052Z,3.70
2018-03-04T17:23:01.217Z,3.60
2018-03-04T17:25:30.090Z,3.60
2018-03-04T17:27:58.471Z,3.40
2018-03-04T17:30:26.877Z,3.40
2018-03-04T17:32:56.014Z,3.30
2018-03-04T17:35:24.406Z,3.30
2018-03-04T17:37:53.641Z,3.10
2018-03-04T17:40:22.908Z,3.10
2018-03-04T17:42:51.371Z,3.10
2018-03-04T17:45:19.780Z,2.90
2018-03-04T17:47:49.291Z,2.80
2018-03-04T17:50:17.790Z,2.80
2018-03-04T17:52:46.216Z,2.70
2018-03-04T17:55:16.658Z,2.60
2018-03-04T17:57:45.119Z,2.50
2018-03-04T18:00:15.331Z,2.40
2018-03-04T18:02:44.381Z,2.30
2018-03-04T18:05:13.568Z,2.10
2018-03-04T18:07:41.912Z,2.10
2018-03-04T18:10:11.285Z,1.90
2018-03-04T18:12:39.689Z,1.80
2018-03-04T18:15:08.849Z,1.60
2018-03-04T18:17:37.714Z,1.60
2018-03-04T18:20:06.070Z,1.50
2018-03-04T18:22:35.049Z,1.60
2018-03-04T18:25:03.798Z,1.50
2018-03-04T18:27:32.131Z,1.40
2018-03-04T18:30:00.491Z,1.40
2018-03-04T18:32:29.845Z,1.20
2018-03-04T18:34:58.251Z,1.10
2018-03-04T18:37:26.660Z,1.10
2018-03-04T18:39:55.779Z,1.10
2018-03-04T18:42:24.103Z,0.80
2018-03-04T18:44:52.459Z,0.70
2018-03-04T18:47:21.996Z,0.40
2018-03-04T18:49:50.384Z,0.40
2018-03-04T18:52:20.281Z,0.40
2018-03-04T18:54:50.638Z,0.40
2018-03-04T18:57:20.030Z,0.30
2018-03-04T18:59:48.451Z,0.40
2018-03-04T19:02:30.133Z,0.40
2018-03-04T19:04:59.341Z,0.40
2018-03-04T19:07:28.869Z,0.50
2018-03-04T19:10:11.974Z,0.50
2018-03-04T19:12:40.405Z,0.60
2018-03-04T19:15:08.736Z,0.60
2018-03-04T19:17:37.449Z,0.70
2018-03-04T19:20:05.823Z,0.80
2018-03-04T19:22:34.184Z,0.90
2018-03-04T19:25:02.964Z,0.80
2018-03-04T19:27:31.307Z,0.80
2018-03-04T19:30:00.413Z,0.80
2018-03-04T19:32:29.657Z,0.80
2018-03-04T19:34:58.000Z,0.70
2018-03-04T19:37:27.121Z,0.80
2018-03-04T19:39:56.221Z,0.80
2018-03-04T19:42:24.580Z,0.70
2018-03-04T19:44:52.957Z,0.60
2018-03-04T19:47:22.502Z,0.50
2018-03-04T19:49:50.869Z,0.50
2018-03-04T19:52:19.232Z,0.40
2018-03-04T19:54:48.212Z,0.30
2018-03-04T19:57:16.564Z,0.30
2018-03-04T19:59:45.665Z,0.20
2018-03-04T20:02:14.891Z,0.40
2018-03-04T20:04:43.255Z,0.50
2018-03-04T20:07:12.391Z,0.30
2018-03-04T20:09:43.237Z,0.20
2018-03-04T20:12:12.683Z,0.20
2018-03-04T20:14:41.835Z,0.20
2018-03-04T20:17:11.356Z,0.30
2018-03-04T20:19:40.488Z,0.30
2018-03-04T20:22:08.849Z,0.30
2018-03-04T20:24:53.960Z,0.30
2018-03-04T20:27:22.381Z,0.30
2018-03-04T20:29:51.506Z,0.20
2018-03-04T20:32:20.937Z,0.20
2018-03-04T20:34:49.358Z,0.20
2018-03-04T20:37:18.444Z,0.30
2018-03-04T20:39:47.262Z,0.30
2018-03-04T20:42:15.744Z,0.30
2018-03-04T20:44:44.126Z,0.30
2018-03-04T20:47:12.898Z,0.40
2018-03-04T20:49:41.326Z,0.40
2018-03-04T20:52:10.474Z,0.30
2018-03-04T20:54:39.690Z,0.30
2018-03-04T20:57:08.850Z,0.40
2018-03-04T20:59:37.862Z,0.40
2018-03-04T21:02:09.061Z,0.60
2018-03-04T21:04:37.453Z,0.50
2018-03-04T21:07:05.840Z,0.70
2018-03-04T21:09:35.901Z,0.70
2018-03-04T21:12:04.271Z,0.70
2018-03-04T21:14:32.634Z,0.70
2018-03-04T21:17:01.357Z,0.60
2018-03-04T21:19:29.702Z,0.50
2018-03-04T21:21:58.055Z,0.50
2018-03-04T21:24:27.225Z,0.50
2018-03-04T21:26:55.569Z,0.60
2018-03-04T21:29:23.994Z,0.70
2018-03-04T21:31:53.227Z,0.80
2018-03-04T21:34:21.583Z,0.60
2018-03-04T21:36:49.932Z,0.60
2018-03-04T21:39:18.737Z,0.60
2018-03-04T21:41:47.083Z,0.50
2018-03-04T21:44:15.468Z,0.60
2018-03-04T21:46:45.009Z,0.70
2018-03-04T21:49:13.378Z,0.70
2018-03-04T21:51:41.742Z,0.70
2018-03-04T21:54:10.918Z,0.60
2018-03-04T21:56:39.288Z,0.60
2018-03-04T21:59:07.757Z,0.60
2018-03-04T22:01:36.542Z,0.60
2018-03-04T22:04:07.906Z,0.40
2018-03-04T22:06:38.456Z,0.40
2018-03-04T22:09:06.832Z,0.50
2018-03-04T22:11:36.587Z,0.50
2018-03-04T22:14:06.397Z,0.50
2018-03-04T22:16:34.797Z,0.50
2018-03-04T22:19:03.177Z,0.30
2018-03-04T22:21:32.101Z,0.30
2018-03-04T22:24:01.060Z,0.20
2018-03-04T22:26:29.463Z,0.10
2018-03-04T22:28:58.496Z,0.10
2018-03-04T22:31:32.725Z,0.10
2018-03-04T22:34:01.573Z,0.20
2018-03-04T22:36:29.925Z,0.20
2018-03-04T22:38:58.389Z,0.30
2018-03-04T22:41:28.993Z,0.30
2018-03-04T22:43:57.405Z,0.30
2018-03-04T22:46:25.765Z,0.30
2018-03-04T22:48:55.141Z,0.20
2018-03-04T22:51:24.268Z,0.30
2018-03-04T22:53:52.650Z,0.20
2018-03-04T22:56:21.473Z,0.30
2018-03-04T22:58:50.589Z,0.40
2018-03-04T23:01:19.746Z,0.60
2018-03-04T23:03:48.490Z,0.60
2018-03-04T23:06:17.826Z,0.80
2018-03-04T23:08:46.224Z,1.00
2018-03-04T23:11:15.253Z,1.80
2018-03-04T23:13:44.354Z,3.70
2018-03-04T23:16:12.705Z,3.70
2018-03-04T23:18:41.936Z,4.40
2018-03-04T23:21:10.300Z,4.80
2018-03-04T23:23:38.626Z,5.00
2018-03-04T23:26:07.362Z,5.30
2018-03-04T23:28:35.703Z,5.40
2018-03-04T23:31:04.045Z,5.60
2018-03-04T23:33:32.901Z,5.70
2018-03-04T23:36:01.247Z,5.70
2018-03-04T23:38:29.587Z,5.70
2018-03-04T23:40:58.594Z,5.70
2018-03-04T23:43:26.942Z,5.70
2018-03-04T23:45:56.046Z,5.70
2018-03-04T23:48:24.962Z,5.70
2018-03-04T23:50:53.320Z,5.80
2018-03-04T23:53:22.418Z,5.90
2018-03-04T23:55:51.956Z,5.80
2018-03-04T23:58:20.309Z,5.90
